createdAt,value
2022-12-28T00:02:25.213Z,96129.13
2022-12-28T00:04:53.703Z,96117.88
2022-12-28T00:07:22.174Z,96119.28
2022-12-28T00:09:50.454Z,96119.28
2022-12-28T00:12:20.211Z,96107.31
2022-12-28T00:14:48.611Z,96110.22
2022-12-28T00:17:16.951Z,96097.09
2022-12-28T00:19:45.255Z,96126.84
2022-12-28T00:22:13.689Z,96118.28
2022-12-28T00:24:42.077Z,96109.72
2022-12-28T00:27:10.667Z,96133.66
2022-12-28T00:29:40.674Z,96116.44
2022-12-28T00:32:09.172Z,96128.97
2022-12-28T00:34:37.582Z,96119.38
2022-12-28T00:37:10.862Z,96115.69
2022-12-28T00:39:42.152Z,96125.47
2022-12-28T00:42:11.197Z,96109.06
2022-12-28T00:44:41.429Z,96129.56
2022-12-28T00:47:09.911Z,96100.31
2022-12-28T00:49:38.332Z,96123.19
2022-12-28T00:52:06.839Z,96105.00
2022-12-28T00:54:35.288Z,96112.38
2022-12-28T00:57:03.665Z,96110.72
2022-12-28T00:59:32.026Z,96093.53
2022-12-28T01:02:02.153Z,96060.81
2022-12-28T01:04:30.571Z,96079.63
2022-12-28T01:06:58.980Z,96076.34
2022-12-28T01:09:27.359Z,96061.28
2022-12-28T01:11:55.776Z,96062.44
2022-12-28T01:14:24.355Z,96065.72
2022-12-28T01:16:53.037Z,96035.13
2022-12-28T01:19:25.347Z,96024.16
2022-12-28T01:21:54.086Z,96047.38
2022-12-28T01:24:22.981Z,96048.81
2022-12-28T01:26:51.309Z,96047.22
2022-12-28T01:29:19.691Z,96048.00
2022-12-28T01:31:48.303Z,96030.22
2022-12-28T01:34:16.665Z,96031.84
2022-12-28T01:36:47.323Z,96020.41
2022-12-28T01:39:16.882Z,96026.66
2022-12-28T01:41:45.206Z,96042.63
2022-12-28T01:44:48.421Z,96015.38
2022-12-28T01:47:21.059Z,95923.84
2022-12-28T01:49:56.420Z,96003.94
2022-12-28T01:52:31.447Z,96013.34
2022-12-28T01:55:04.781Z,95995.19
2022-12-28T01:57:37.304Z,95979.81
2022-12-28T02:00:10.989Z,95982.16
2022-12-28T02:02:39.305Z,95994.59
2022-12-28T02:05:09.356Z,95953.34
2022-12-28T02:07:45.159Z,95974.69
2022-12-28T02:10:44.327Z,95955.97
2022-12-28T02:13:03.356Z,95952.22
2022-12-28T02:15:31.743Z,95937.69
2022-12-28T02:18:00.949Z,95943.63
2022-12-28T02:20:38.824Z,95936.00
2022-12-28T02:23:47.074Z,95927.88
2022-12-28T02:26:36.736Z,95920.97
2022-12-28T02:29:37.293Z,95925.00
2022-12-28T02:32:26.892Z,95923.69
2022-12-28T02:35:03.344Z,95918.88
2022-12-28T02:37:37.986Z,95909.13
2022-12-28T02:40:11.247Z,95909.81
2022-12-28T02:42:40.878Z,95912.91
2022-12-28T02:45:55.442Z,95903.81
2022-12-28T02:48:41.924Z,95905.31
2022-12-28T02:51:33.715Z,95881.41
2022-12-28T02:54:53.430Z,95881.53
2022-12-28T02:57:37.600Z,95790.91
2022-12-28T03:00:09.518Z,95865.63
2022-12-28T03:02:58.397Z,95909.06
2022-12-28T03:05:55.973Z,95902.09
2022-12-28T03:08:35.462Z,95892.03
2022-12-28T03:11:08.821Z,95856.88
2022-12-28T03:13:45.981Z,95874.22
2022-12-28T03:16:19.762Z,95860.16
2022-12-28T03:19:12.233Z,95877.78
2022-12-28T03:22:00.864Z,95860.69
2022-12-28T03:24:49.095Z,95800.94
2022-12-28T03:27:37.172Z,95854.66
2022-12-28T03:30:26.785Z,95843.25
2022-12-28T03:32:55.821Z,95839.03
2022-12-28T03:35:35.111Z,95791.78
2022-12-28T03:38:04.891Z,95789.97
2022-12-28T03:40:41.103Z,95762.38
2022-12-28T03:43:34.004Z,95752.47
2022-12-28T03:46:07.626Z,95750.72
2022-12-28T03:48:37.612Z,95746.19
2022-12-28T03:51:07.720Z,95732.03
2022-12-28T03:53:41.922Z,95732.78
2022-12-28T03:56:12.330Z,95716.19
2022-12-28T03:58:40.777Z,95739.28
2022-12-28T04:01:09.402Z,95651.66
2022-12-28T04:03:38.588Z,95737.22
2022-12-28T04:06:09.720Z,95729.69
2022-12-28T04:08:38.104Z,95741.78
2022-12-28T04:11:06.945Z,95726.47
2022-12-28T04:13:35.642Z,95747.03
2022-12-28T04:16:06.842Z,95637.94
2022-12-28T04:18:36.056Z,95743.97
2022-12-28T04:21:04.463Z,95755.81
2022-12-28T04:23:34.683Z,95739.13
2022-12-28T04:26:04.864Z,95773.47
2022-12-28T04:28:34.534Z,95783.44
2022-12-28T04:31:04.092Z,95795.19
2022-12-28T04:33:35.015Z,95767.72
2022-12-28T04:36:07.421Z,95776.41
2022-12-28T04:38:37.794Z,95730.63
2022-12-28T04:41:08.110Z,95748.41
2022-12-28T04:43:36.750Z,95767.19
2022-12-28T04:46:07.729Z,95733.50
2022-12-28T04:48:36.179Z,95745.59
2022-12-28T04:51:09.137Z,95725.47
2022-12-28T04:53:43.175Z,95727.03
2022-12-28T04:56:13.439Z,95748.41
2022-12-28T04:58:42.454Z,95738.00
2022-12-28T05:01:12.868Z,95727.75
2022-12-28T05:03:49.511Z,95725.25
2022-12-28T05:06:23.059Z,95729.66
2022-12-28T05:08:54.461Z,95721.38
2022-12-28T05:11:24.982Z,95708.53
2022-12-28T05:13:53.576Z,95672.50
2022-12-28T05:16:23.671Z,95704.91
2022-12-28T05:18:52.401Z,95695.19
2022-12-28T05:21:22.453Z,95694.88
2022-12-28T05:23:51.447Z,95687.78
2022-12-28T05:26:23.717Z,95649.53
2022-12-28T05:28:52.421Z,95637.63
2022-12-28T05:31:22.616Z,95669.41
2022-12-28T05:33:51.747Z,95628.34
2022-12-28T05:36:21.982Z,95641.88
2022-12-28T05:38:50.528Z,95540.53
2022-12-28T05:41:22.618Z,95623.47
2022-12-28T05:43:51.550Z,95624.28
2022-12-28T05:46:21.648Z,95567.88
2022-12-28T05:48:50.471Z,95580.34
2022-12-28T05:51:21.114Z,95616.22
2022-12-28T05:53:49.760Z,95595.38
2022-12-28T05:56:20.162Z,95562.94
2022-12-28T05:58:55.879Z,95627.81
2022-12-28T06:01:25.979Z,95609.13
2022-12-28T06:03:55.964Z,95612.53
2022-12-28T06:06:24.890Z,95600.28
2022-12-28T06:08:53.557Z,95559.41
2022-12-28T06:11:24.011Z,95594.97
2022-12-28T06:13:54.546Z,95609.06
2022-12-28T06:16:25.639Z,95594.44
2022-12-28T06:18:54.577Z,95574.31
2022-12-28T06:21:25.030Z,95598.81
2022-12-28T06:23:53.611Z,95547.59
2022-12-28T06:26:22.923Z,95592.00
2022-12-28T06:28:53.484Z,95557.13
2022-12-28T06:31:23.375Z,95566.50
2022-12-28T06:33:54.051Z,95551.19
2022-12-28T06:36:24.339Z,95520.41
2022-12-28T06:38:54.012Z,95438.81
2022-12-28T06:41:24.030Z,95559.19
2022-12-28T06:43:54.309Z,95546.94
2022-12-28T06:46:24.064Z,95549.00
2022-12-28T06:48:52.591Z,95554.47
2022-12-28T06:51:22.943Z,95512.81
2022-12-28T06:53:53.131Z,95504.66
2022-12-28T06:56:24.228Z,95497.78
2022-12-28T06:59:02.113Z,95477.06
2022-12-28T07:01:33.838Z,95488.19
2022-12-28T07:04:04.062Z,95511.69
2022-12-28T07:06:37.097Z,95466.44
2022-12-28T07:09:08.485Z,95448.84
2022-12-28T07:11:37.750Z,95413.41
2022-12-28T07:14:07.804Z,95483.69
2022-12-28T07:19:03.981Z,95461.59
2022-12-28T07:21:34.519Z,95440.94
2022-12-28T07:24:03.359Z,95453.78
2022-12-28T07:26:33.323Z,95465.28
2022-12-28T07:29:03.784Z,95435.63
2022-12-28T07:31:43.655Z,95482.97
2022-12-28T07:34:13.953Z,95485.72
2022-12-28T07:36:42.318Z,95500.13
2022-12-28T07:39:10.735Z,95502.41
2022-12-28T07:41:39.192Z,95468.06
2022-12-28T07:44:07.917Z,95488.31
2022-12-28T07:46:39.183Z,95499.78
2022-12-28T07:49:08.067Z,95476.63
2022-12-28T07:51:38.456Z,95486.34
2022-12-28T07:54:07.694Z,95499.69
2022-12-28T07:59:05.252Z,95496.91
2022-12-28T08:01:35.801Z,95485.09
2022-12-28T08:04:07.342Z,95452.44
2022-12-28T08:06:37.173Z,95467.28
2022-12-28T08:09:07.229Z,95450.38
2022-12-28T08:11:38.202Z,95442.94
2022-12-28T08:14:08.545Z,95431.47
2022-12-28T08:16:39.623Z,95411.78
2022-12-28T08:19:10.771Z,95413.41
2022-12-28T08:21:41.548Z,95416.75
2022-12-28T08:24:14.603Z,95421.13
2022-12-28T08:26:44.114Z,95436.59
2022-12-28T08:29:15.346Z,95437.00
2022-12-28T08:31:45.960Z,95421.72
2022-12-28T08:34:20.401Z,95463.63
2022-12-28T08:36:48.955Z,95422.09
2022-12-28T08:39:17.402Z,95448.81
2022-12-28T08:41:45.858Z,95468.72
2022-12-28T08:44:14.198Z,95478.69
2022-12-28T08:46:42.723Z,95449.88
2022-12-28T08:49:11.194Z,95375.50
2022-12-28T08:51:42.660Z,95459.72
2022-12-28T08:54:13.787Z,95442.84
2022-12-28T08:56:44.324Z,95475.69
2022-12-28T08:59:16.449Z,95427.09
2022-12-28T09:01:45.163Z,95458.88
2022-12-28T09:04:16.353Z,95458.59
2022-12-28T09:06:46.227Z,95425.56
2022-12-28T09:09:16.547Z,95440.19
2022-12-28T09:11:45.291Z,95440.41
2022-12-28T09:14:22.775Z,95465.34
2022-12-28T09:16:51.994Z,95444.63
2022-12-28T09:19:20.595Z,95494.16
2022-12-28T09:21:52.724Z,95476.03
2022-12-28T09:24:22.016Z,95473.44
2022-12-28T09:26:53.045Z,95485.03
2022-12-28T09:29:21.858Z,95441.78
2022-12-28T09:31:50.420Z,95418.50
2022-12-28T09:37:09.192Z,95442.19
2022-12-28T09:39:38.311Z,95467.16
2022-12-28T09:42:16.697Z,95453.75
2022-12-28T09:44:56.109Z,95461.69
2022-12-28T09:47:30.794Z,95450.72
2022-12-28T09:50:26.338Z,95442.00
2022-12-28T09:53:08.552Z,95459.19
2022-12-28T09:55:39.614Z,95435.47
2022-12-28T09:58:19.059Z,95452.19
2022-12-28T10:00:50.169Z,95442.56
2022-12-28T10:03:22.037Z,95436.56
2022-12-28T10:05:52.303Z,95445.16
2022-12-28T10:08:24.130Z,95439.56
2022-12-28T10:10:54.553Z,95438.19
2022-12-28T10:16:19.073Z,95405.16
2022-12-28T10:18:48.284Z,95443.94
2022-12-28T10:21:18.737Z,95406.59
2022-12-28T10:24:29.170Z,95398.41
2022-12-28T10:26:39.217Z,95393.09
2022-12-28T10:29:13.829Z,95383.38
2022-12-28T10:31:43.587Z,95393.50
2022-12-28T10:34:18.102Z,95397.41
2022-12-28T10:36:47.502Z,95403.09
2022-12-28T10:39:24.134Z,95383.16
2022-12-28T10:41:54.416Z,95372.53
2022-12-28T10:44:39.309Z,95244.91
2022-12-28T10:47:18.913Z,95226.13
2022-12-28T10:52:41.731Z,95303.28
2022-12-28T10:55:30.963Z,95344.00
2022-12-28T10:58:33.530Z,95416.72
2022-12-28T11:01:07.254Z,95357.41
2022-12-28T11:03:36.989Z,95386.31
2022-12-28T11:06:27.111Z,95394.69
2022-12-28T11:09:06.739Z,95382.09
2022-12-28T11:11:36.640Z,95402.31
2022-12-28T11:14:11.554Z,95391.94
2022-12-28T11:16:41.959Z,95398.09
2022-12-28T11:19:11.580Z,95333.41
2022-12-28T11:21:40.772Z,95367.31
2022-12-28T11:24:14.268Z,95389.47
2022-12-28T11:26:47.114Z,95420.59
2022-12-28T11:29:17.175Z,95396.53
2022-12-28T11:31:50.547Z,95380.16
2022-12-28T11:34:25.031Z,95390.03
2022-12-28T11:36:53.609Z,95358.50
2022-12-28T11:39:45.216Z,95362.22
2022-12-28T11:42:53.639Z,95373.56
2022-12-28T11:45:52.207Z,95364.31
2022-12-28T11:48:49.444Z,95382.78
2022-12-28T11:51:19.410Z,95382.28
2022-12-28T11:54:00.309Z,95360.81
2022-12-28T11:56:45.171Z,95365.25
2022-12-28T11:59:27.087Z,95360.00
2022-12-28T12:01:59.603Z,95351.25
2022-12-28T12:04:36.130Z,95367.44
2022-12-28T12:07:44.141Z,95341.06
2022-12-28T12:10:39.065Z,95332.19
2022-12-28T12:13:42.664Z,95340.50
2022-12-28T12:16:23.366Z,95340.09
2022-12-28T12:18:54.421Z,95347.19
2022-12-28T12:21:31.468Z,95341.38
2022-12-28T12:24:07.038Z,95337.03
2022-12-28T12:26:40.002Z,95361.44
2022-12-28T12:29:16.324Z,95363.53
2022-12-28T12:31:50.367Z,95360.47
2022-12-28T12:34:25.491Z,95334.88
2022-12-28T12:37:21.292Z,95348.16
2022-12-28T12:40:05.711Z,95354.72
2022-12-28T12:42:46.970Z,95338.00
2022-12-28T12:45:26.914Z,95347.84
2022-12-28T12:48:19.275Z,95321.81
2022-12-28T12:51:21.455Z,95329.84
2022-12-28T12:54:16.830Z,95350.34
2022-12-28T12:56:51.189Z,95344.94
2022-12-28T12:59:43.272Z,95351.06
2022-12-28T13:02:42.900Z,95343.38
2022-12-28T13:05:20.743Z,95348.09
2022-12-28T13:07:50.332Z,95289.16
2022-12-28T13:10:24.544Z,95357.72
2022-12-28T13:13:01.450Z,95356.41
2022-12-28T13:15:30.638Z,95334.66
2022-12-28T13:18:34.184Z,95325.19
2022-12-28T13:20:58.801Z,95331.16
2022-12-28T13:23:28.742Z,95306.47
2022-12-28T13:25:59.192Z,95330.84
2022-12-28T13:28:30.271Z,95345.06
2022-12-28T13:31:08.485Z,95360.13
2022-12-28T13:33:36.955Z,95344.25
2022-12-28T13:36:24.368Z,95332.38
2022-12-28T13:39:05.318Z,95339.44
2022-12-28T13:41:36.679Z,95317.69
2022-12-28T13:44:29.077Z,95325.31
2022-12-28T13:47:03.160Z,95261.13
2022-12-28T13:49:37.701Z,95306.16
2022-12-28T13:52:17.685Z,95335.84
2022-12-28T13:54:52.139Z,95317.59
2022-12-28T13:57:55.689Z,95332.38
2022-12-28T14:00:12.289Z,95350.94
2022-12-28T14:02:42.832Z,95329.63
2022-12-28T14:05:17.997Z,95329.50
2022-12-28T14:07:48.705Z,95332.13
2022-12-28T14:10:17.623Z,95342.81
2022-12-28T14:12:47.269Z,95340.38
2022-12-28T14:15:17.563Z,95319.56
2022-12-28T14:17:48.409Z,95340.94
2022-12-28T14:20:17.012Z,95330.69
2022-12-28T14:22:45.744Z,95312.09
2022-12-28T14:25:18.291Z,95326.03
2022-12-28T14:27:57.290Z,95301.31
2022-12-28T14:30:28.161Z,95316.81
2022-12-28T14:32:57.744Z,95333.72
2022-12-28T14:35:29.036Z,95116.56
2022-12-28T14:38:00.255Z,95321.31
2022-12-28T14:40:33.306Z,95322.66
2022-12-28T14:43:08.773Z,95319.00
2022-12-28T14:46:05.171Z,95327.59
2022-12-28T14:48:38.264Z,95320.31
2022-12-28T14:51:24.143Z,95301.75
2022-12-28T14:54:17.428Z,95302.25
2022-12-28T14:56:50.874Z,95309.31
2022-12-28T14:59:25.388Z,95332.19
2022-12-28T15:01:53.883Z,95315.34
2022-12-28T15:04:36.960Z,95312.75
2022-12-28T15:07:06.890Z,95338.91
2022-12-28T15:09:35.410Z,95342.91
2022-12-28T15:12:13.935Z,95347.09
2022-12-28T15:14:43.143Z,95326.09
2022-12-28T15:17:12.318Z,95342.69
2022-12-28T15:19:40.904Z,95344.34
2022-12-28T15:22:09.537Z,95326.66
2022-12-28T15:24:39.011Z,95341.38
2022-12-28T15:27:07.481Z,95332.81
2022-12-28T15:30:04.542Z,95332.03
2022-12-28T15:32:25.685Z,95269.63
2022-12-28T15:34:54.105Z,95333.16
2022-12-28T15:37:22.432Z,95344.84
2022-12-28T15:39:50.840Z,95332.38
2022-12-28T15:42:19.349Z,95336.16
2022-12-28T15:44:51.232Z,95325.91
2022-12-28T15:47:21.849Z,95341.38
2022-12-28T15:49:50.244Z,95344.91
2022-12-28T15:52:18.794Z,95342.50
2022-12-28T15:54:47.575Z,95314.53
2022-12-28T15:57:16.614Z,95333.13
2022-12-28T15:59:45.185Z,95322.13
2022-12-28T16:02:15.248Z,95302.25
2022-12-28T16:04:43.955Z,95322.16
2022-12-28T16:07:12.852Z,95332.53
2022-12-28T16:09:41.413Z,95310.63
2022-12-28T16:12:10.655Z,95312.91
2022-12-28T16:14:39.136Z,95314.88
2022-12-28T16:17:08.860Z,95302.56
2022-12-28T16:19:39.836Z,95325.59
2022-12-28T16:22:08.960Z,95309.03
2022-12-28T16:24:37.669Z,95332.00
2022-12-28T16:27:06.723Z,95318.81
2022-12-28T16:29:35.140Z,95247.00
2022-12-28T16:32:03.746Z,95320.50
2022-12-28T16:34:32.337Z,95313.84
2022-12-28T16:37:02.069Z,95309.38
2022-12-28T16:39:31.277Z,95304.41
2022-12-28T16:42:00.780Z,95288.25
2022-12-28T16:44:29.606Z,95291.47
2022-12-28T16:46:59.794Z,95281.72
2022-12-28T16:49:30.201Z,95273.34
2022-12-28T16:51:58.937Z,95260.31
2022-12-28T16:54:28.845Z,95286.56
2022-12-28T16:56:57.683Z,95275.25
2022-12-28T16:59:28.643Z,95284.03
2022-12-28T17:01:59.730Z,95274.38
2022-12-28T17:04:29.312Z,95276.56
2022-12-28T17:06:57.690Z,95236.66
2022-12-28T17:09:25.994Z,95264.91
2022-12-28T17:11:55.812Z,95263.84
2022-12-28T17:14:37.023Z,95258.41
2022-12-28T17:17:06.652Z,95231.66
2022-12-28T17:19:35.171Z,95224.13
2022-12-28T17:22:04.146Z,95226.81
2022-12-28T17:24:32.795Z,95225.06
2022-12-28T17:27:08.226Z,95214.78
2022-12-28T17:29:38.719Z,95208.91
2022-12-28T17:32:07.942Z,95209.50
2022-12-28T17:34:36.797Z,95208.13
2022-12-28T17:37:05.448Z,95193.66
2022-12-28T17:39:39.532Z,95187.97
2022-12-28T17:42:12.032Z,95180.66
2022-12-28T17:44:40.371Z,95191.22
2022-12-28T17:47:09.473Z,95178.81
2022-12-28T17:49:37.772Z,95168.69
2022-12-28T17:52:08.032Z,95141.72
2022-12-28T17:54:36.388Z,95180.63
2022-12-28T17:57:04.946Z,95147.94
2022-12-28T17:59:35.279Z,95173.63
2022-12-28T18:02:05.089Z,95158.47
2022-12-28T18:04:34.734Z,95171.75
2022-12-28T18:07:03.622Z,95155.59
2022-12-28T18:09:32.685Z,95117.00
2022-12-28T18:12:01.156Z,95178.94
2022-12-28T18:14:29.853Z,95140.09
2022-12-28T18:16:59.756Z,95153.38
2022-12-28T18:19:28.371Z,95107.69
2022-12-28T18:21:56.822Z,95113.53
2022-12-28T18:24:26.067Z,95147.22
2022-12-28T18:26:54.973Z,95078.16
2022-12-28T18:29:23.651Z,95139.59
2022-12-28T18:31:53.018Z,95130.56
2022-12-28T18:34:22.750Z,95157.53
2022-12-28T18:36:51.204Z,95133.47
2022-12-28T18:39:19.545Z,95152.97
2022-12-28T18:41:48.028Z,95152.97
2022-12-28T18:44:17.531Z,94995.88
2022-12-28T18:46:46.043Z,95151.38
2022-12-28T18:49:14.492Z,95155.16
2022-12-28T18:51:44.326Z,95142.06
2022-12-28T18:54:12.713Z,95132.19
2022-12-28T18:56:41.253Z,95149.84
2022-12-28T18:59:09.637Z,95137.22
2022-12-28T19:04:29.585Z,95114.16
2022-12-28T19:06:59.517Z,95142.16
2022-12-28T19:09:28.065Z,95146.66
2022-12-28T19:11:56.347Z,95151.22
2022-12-28T19:14:25.133Z,95143.50
2022-12-28T19:16:53.623Z,95139.94
2022-12-28T19:19:22.131Z,95135.72
2022-12-28T19:21:56.527Z,95143.75
2022-12-28T19:24:28.409Z,95138.69
2022-12-28T19:26:56.766Z,95127.44
2022-12-28T19:29:25.502Z,95126.34
2022-12-28T19:31:54.010Z,95106.22
2022-12-28T19:34:22.483Z,95117.78
2022-12-28T19:36:51.024Z,95122.84
2022-12-28T19:39:19.870Z,95118.00
2022-12-28T19:41:49.697Z,95116.44
2022-12-28T19:44:20.629Z,95097.09
2022-12-28T19:46:49.734Z,95116.97
2022-12-28T19:49:18.445Z,94990.09
2022-12-28T19:51:46.961Z,95122.25
2022-12-28T19:54:15.396Z,95123.88
2022-12-28T19:56:44.790Z,95105.16
2022-12-28T19:59:14.451Z,95105.69
2022-12-28T20:01:43.025Z,95066.22
2022-12-28T20:04:13.899Z,95067.00
2022-12-28T20:06:44.252Z,95087.22
2022-12-28T20:09:14.094Z,95083.75
2022-12-28T20:11:42.755Z,95062.56
2022-12-28T20:14:14.546Z,95060.75
2022-12-28T20:16:43.719Z,95060.22
2022-12-28T20:19:12.643Z,95062.66
2022-12-28T20:21:42.707Z,95046.34
2022-12-28T20:24:13.080Z,95025.56
2022-12-28T20:26:41.677Z,95030.81
2022-12-28T20:29:10.052Z,95029.78
2022-12-28T20:31:39.948Z,95015.63
2022-12-28T20:34:08.409Z,94991.16
2022-12-28T20:36:36.793Z,95014.28
2022-12-28T20:39:05.362Z,95018.03
2022-12-28T20:42:03.489Z,94946.97
2022-12-28T20:44:34.579Z,95008.91
2022-12-28T20:47:25.301Z,95018.81
2022-12-28T20:49:55.242Z,94952.94
2022-12-28T20:52:24.875Z,94967.09
2022-12-28T20:54:54.276Z,94978.56
2022-12-28T20:57:24.080Z,95003.16
2022-12-28T20:59:53.869Z,94960.13
2022-12-28T21:02:25.478Z,94878.19
2022-12-28T21:04:55.180Z,94972.03
2022-12-28T21:07:25.025Z,94978.69
2022-12-28T21:09:54.722Z,94962.38
2022-12-28T21:12:24.635Z,94974.13
2022-12-28T21:14:54.423Z,94953.00
2022-12-28T21:17:26.539Z,94985.38
2022-12-28T21:19:55.891Z,94944.75
2022-12-28T21:22:25.801Z,94939.25
2022-12-28T21:24:55.664Z,94967.97
2022-12-28T21:27:25.380Z,94942.81
2022-12-28T21:29:56.692Z,94947.66
2022-12-28T21:32:28.352Z,94911.78
2022-12-28T21:34:58.438Z,94862.16
2022-12-28T21:37:37.231Z,94928.13
2022-12-28T21:40:09.280Z,94924.94
2022-12-28T21:42:39.705Z,94919.50
2022-12-28T21:45:10.241Z,94925.16
2022-12-28T21:47:41.805Z,94946.56
2022-12-28T21:50:13.227Z,94924.41
2022-12-28T21:52:43.295Z,94899.16
2022-12-28T21:55:30.267Z,94916.97
2022-12-28T21:58:01.568Z,94926.56
2022-12-28T22:00:48.135Z,94890.09
2022-12-28T22:03:36.374Z,94933.25
2022-12-28T22:06:07.178Z,94907.25
2022-12-28T22:08:53.970Z,94909.91
2022-12-28T22:11:41.376Z,94911.50
2022-12-28T22:14:11.387Z,94905.63
2022-12-28T22:16:41.122Z,94907.53
2022-12-28T22:19:12.352Z,94929.22
2022-12-28T22:21:41.906Z,94914.28
2022-12-28T22:24:11.926Z,94923.91
2022-12-28T22:26:41.657Z,94904.66
2022-12-28T22:29:11.539Z,94919.88
2022-12-28T22:31:41.453Z,94924.94
2022-12-28T22:34:11.527Z,94918.53
2022-12-28T22:36:39.848Z,94919.06
2022-12-28T22:39:08.132Z,94894.72
2022-12-28T22:41:36.556Z,94916.97
2022-12-28T22:44:05.165Z,94837.19
2022-12-28T22:46:33.544Z,94908.38
2022-12-28T22:49:01.979Z,94909.22
2022-12-28T22:51:31.746Z,94888.84
2022-12-28T22:54:00.094Z,94905.69
2022-12-28T22:56:28.417Z,94876.25
2022-12-28T22:58:56.844Z,94899.56
2022-12-28T23:01:25.764Z,94883.22
2022-12-28T23:03:54.215Z,94872.50
2022-12-28T23:06:22.715Z,94899.78
2022-12-28T23:08:52.542Z,94862.63
2022-12-28T23:11:34.832Z,94826.81
2022-12-28T23:14:17.648Z,94874.16
2022-12-28T23:16:46.193Z,94857.97
2022-12-28T23:19:32.291Z,94837.72
2022-12-28T23:22:19.902Z,94862.63
2022-12-28T23:25:07.199Z,94868.22
2022-12-28T23:27:38.772Z,94874.44
2022-12-28T23:30:10.013Z,94854.88
2022-12-28T23:32:38.346Z,94865.56
2022-12-28T23:35:07.392Z,94790.53
2022-12-28T23:37:35.823Z,94873.84
2022-12-28T23:40:05.987Z,94854.78
2022-12-28T23:42:36.409Z,94878.38
2022-12-28T23:45:05.469Z,94841.16
2022-12-28T23:47:33.867Z,94857.00
2022-12-28T23:50:02.453Z,94871.72
2022-12-28T23:52:31.093Z,94885.94
2022-12-28T23:54:59.452Z,94874.75
2022-12-28T23:57:29.301Z,94836.22
2022-12-28T23:59:57.724Z,94892.94
